Terminal Aerodrome Forecast
Issued by NWS St Louis, MO

Home | Current Version | Previous Version | Text Only | Print | Product List | Glossary On
Versions: 1 2 3 4 5 6 7 8 9 10 11 12 13 14 15 16 17 18 19 20 21 22 23 24 25 26 27
432
FTUS43 KLSX 220312 AAA
TAFSTL
TAF AMD
KSTL 220312Z 2203/2306 VRB04KT P6SM OVC200
     FM220600 04006KT P6SM OVC060
     FM221000 06004KT 4SM BR VCSH OVC010
     FM221300 02006KT 2SM -SHRA BR OVC008
     FM221900 35014G24KT P6SM OVC025
     FM222300 34013G24KT P6SM OVC050
     FM230400 33012G21KT P6SM SCT006 BKN010=

USA.gov is the U.S. government's official web portal to all federal, state and local government web resources and services.